York New Salem, Pennsylvania
Current Conditions -  °F | °C
As of 8:53 AM on Sunday 25 Jan 2015 (Local Time) from KTHV Reporting Station
Overcast Overcast  
Wind Chill: 31°   Ceiling: 4000
Heat Index: 38°   Visibility: 10mi
Dew Point: 28°   Wind: 9mph
Humidity: 68%   Direction: 230°SW
Pressure: 29.79"   Gusts: NA
Location:  39.9°N, 76.78°W
Report Text: KTHV 251353Z AUTO 23008KT 10SM OVC040 03/M02 A2979 RMK AO2 SLP093 T00331022
Loading
Personal Weather Stations






























Interactive Weather Map New forecast layout! Learn more

10-Day Weather Forecast

Advertisements
Track Severe Weather on mobile